sensor_id;sensor_type;location;lat;lon;timestamp;temperature;humidity
46356;DHT22;32066;49.474;11.106;2023-03-12T00:01:20;3.20;91.00
46356;DHT22;32066;49.474;11.106;2023-03-12T00:03:50;3.10;90.80
46356;DHT22;32066;49.474;11.106;2023-03-12T00:06:20;3.10;91.00
46356;DHT22;32066;49.474;11.106;2023-03-12T00:08:49;3.10;91.00
46356;DHT22;32066;49.474;11.106;2023-03-12T00:11:19;3.10;91.00
46356;DHT22;32066;49.474;11.106;2023-03-12T00:13:49;3.10;91.10
46356;DHT22;32066;49.474;11.106;2023-03-12T00:16:21;3.10;91.10
46356;DHT22;32066;49.474;11.106;2023-03-12T00:18:52;3.10;91.10
46356;DHT22;32066;49.474;11.106;2023-03-12T00:21:21;3.10;91.10
46356;DHT22;32066;49.474;11.106;2023-03-12T00:23:51;3.10;91.10
46356;DHT22;32066;49.474;11.106;2023-03-12T00:26:21;3.00;91.30
46356;DHT22;32066;49.474;11.106;2023-03-12T00:28:50;3.00;91.30
46356;DHT22;32066;49.474;11.106;2023-03-12T00:31:23;2.90;91.40
46356;DHT22;32066;49.474;11.106;2023-03-12T00:33:54;2.90;91.40
46356;DHT22;32066;49.474;11.106;2023-03-12T00:36:25;2.90;91.40
46356;DHT22;32066;49.474;11.106;2023-03-12T00:38:55;3.00;91.40
46356;DHT22;32066;49.474;11.106;2023-03-12T00:41:24;3.00;91.30
46356;DHT22;32066;49.474;11.106;2023-03-12T00:43:53;2.90;91.20
46356;DHT22;32066;49.474;11.106;2023-03-12T00:46:25;2.90;91.30
46356;DHT22;32066;49.474;11.106;2023-03-12T00:48:53;2.80;91.50
46356;DHT22;32066;49.474;11.106;2023-03-12T00:51:22;2.90;91.40
46356;DHT22;32066;49.474;11.106;2023-03-12T00:53:51;3.00;91.50
46356;DHT22;32066;49.474;11.106;2023-03-12T00:56:20;2.90;91.50
46356;DHT22;32066;49.474;11.106;2023-03-12T00:58:49;2.90;91.70
46356;DHT22;32066;49.474;11.106;2023-03-12T01:01:18;3.00;91.60
46356;DHT22;32066;49.474;11.106;2023-03-12T01:03:50;2.90;91.70
46356;DHT22;32066;49.474;11.106;2023-03-12T01:06:19;2.90;91.90
46356;DHT22;32066;49.474;11.106;2023-03-12T01:08:47;2.80;92.20
46356;DHT22;32066;49.474;11.106;2023-03-12T01:11:19;2.90;91.80
46356;DHT22;32066;49.474;11.106;2023-03-12T01:13:48;2.80;91.90
46356;DHT22;32066;49.474;11.106;2023-03-12T01:16:16;2.80;91.80
46356;DHT22;32066;49.474;11.106;2023-03-12T01:18:45;2.80;91.90
46356;DHT22;32066;49.474;11.106;2023-03-12T01:21:16;2.70;92.00
46356;DHT22;32066;49.474;11.106;2023-03-12T01:23:45;2.70;92.30
46356;DHT22;32066;49.474;11.106;2023-03-12T01:26:14;2.70;92.00
46356;DHT22;32066;49.474;11.106;2023-03-12T01:28:42;2.80;92.00
46356;DHT22;32066;49.474;11.106;2023-03-12T01:31:13;2.70;91.90
46356;DHT22;32066;49.474;11.106;2023-03-12T01:33:43;2.70;92.00
46356;DHT22;32066;49.474;11.106;2023-03-12T01:36:19;2.70;92.00
46356;DHT22;32066;49.474;11.106;2023-03-12T01:38:49;2.70;92.00
46356;DHT22;32066;49.474;11.106;2023-03-12T01:41:18;2.70;92.00
46356;DHT22;32066;49.474;11.106;2023-03-12T01:43:47;2.70;92.00
46356;DHT22;32066;49.474;11.106;2023-03-12T01:46:26;2.70;91.90
46356;DHT22;32066;49.474;11.106;2023-03-12T01:49:00;2.60;92.00
46356;DHT22;32066;49.474;11.106;2023-03-12T01:51:36;2.60;92.10
46356;DHT22;32066;49.474;11.106;2023-03-12T01:54:09;2.60;92.00
46356;DHT22;32066;49.474;11.106;2023-03-12T01:56:38;2.60;92.00
46356;DHT22;32066;49.474;11.106;2023-03-12T01:59:13;2.60;92.10
46356;DHT22;32066;49.474;11.106;2023-03-12T02:01:43;2.60;92.10
46356;DHT22;32066;49.474;11.106;2023-03-12T02:04:14;2.60;92.20
46356;DHT22;32066;49.474;11.106;2023-03-12T02:06:49;2.50;92.30
46356;DHT22;32066;49.474;11.106;2023-03-12T02:09:19;2.50;92.30
46356;DHT22;32066;49.474;11.106;2023-03-12T02:11:49;2.50;92.40
46356;DHT22;32066;49.474;11.106;2023-03-12T02:14:19;2.50;92.30
46356;DHT22;32066;49.474;11.106;2023-03-12T02:16:48;2.50;92.30
46356;DHT22;32066;49.474;11.106;2023-03-12T02:19:21;2.40;92.30
46356;DHT22;32066;49.474;11.106;2023-03-12T02:21:54;2.40;92.30
46356;DHT22;32066;49.474;11.106;2023-03-12T02:24:29;2.40;92.30
46356;DHT22;32066;49.474;11.106;2023-03-12T02:27:03;2.30;92.40
46356;DHT22;32066;49.474;11.106;2023-03-12T02:29:37;2.40;92.50
46356;DHT22;32066;49.474;11.106;2023-03-12T02:32:09;2.30;92.60
46356;DHT22;32066;49.474;11.106;2023-03-12T02:34:40;2.30;92.70
46356;DHT22;32066;49.474;11.106;2023-03-12T02:37:09;2.30;92.70
46356;DHT22;32066;49.474;11.106;2023-03-12T02:39:38;2.30;92.80
46356;DHT22;32066;49.474;11.106;2023-03-12T02:42:11;2.30;92.80
46356;DHT22;32066;49.474;11.106;2023-03-12T02:44:40;2.30;92.90
46356;DHT22;32066;49.474;11.106;2023-03-12T02:47:10;2.30;92.90
46356;DHT22;32066;49.474;11.106;2023-03-12T02:49:38;2.30;92.90
46356;DHT22;32066;49.474;11.106;2023-03-12T02:52:07;2.30;93.00
46356;DHT22;32066;49.474;11.106;2023-03-12T02:54:35;2.30;93.00
46356;DHT22;32066;49.474;11.106;2023-03-12T02:57:04;2.20;93.00
46356;DHT22;32066;49.474;11.106;2023-03-12T02:59:36;2.20;93.10
46356;DHT22;32066;49.474;11.106;2023-03-12T03:02:06;2.30;93.10
46356;DHT22;32066;49.474;11.106;2023-03-12T03:04:37;2.40;93.00
46356;DHT22;32066;49.474;11.106;2023-03-12T03:07:06;2.40;92.80
46356;DHT22;32066;49.474;11.106;2023-03-12T03:09:35;2.40;92.80
46356;DHT22;32066;49.474;11.106;2023-03-12T03:12:04;2.30;92.90
46356;DHT22;32066;49.474;11.106;2023-03-12T03:14:36;2.30;92.90
46356;DHT22;32066;49.474;11.106;2023-03-12T03:17:05;2.30;93.00
46356;DHT22;32066;49.474;11.106;2023-03-12T03:19:34;2.20;93.40
46356;DHT22;32066;49.474;11.106;2023-03-12T03:22:04;2.30;93.50
46356;DHT22;32066;49.474;11.106;2023-03-12T03:24:33;2.40;93.10
46356;DHT22;32066;49.474;11.106;2023-03-12T03:27:01;2.40;93.00
46356;DHT22;32066;49.474;11.106;2023-03-12T03:29:30;2.30;93.20
46356;DHT22;32066;49.474;11.106;2023-03-12T03:32:03;2.40;93.10
46356;DHT22;32066;49.474;11.106;2023-03-12T03:34:32;2.40;93.10
46356;DHT22;32066;49.474;11.106;2023-03-12T03:37:01;2.40;93.00
46356;DHT22;32066;49.474;11.106;2023-03-12T03:39:31;2.40;93.00
46356;DHT22;32066;49.474;11.106;2023-03-12T03:42:00;2.50;93.00
46356;DHT22;32066;49.474;11.106;2023-03-12T03:44:31;2.50;93.00
46356;DHT22;32066;49.474;11.106;2023-03-12T03:47:03;2.50;92.90
46356;DHT22;32066;49.474;11.106;2023-03-12T03:49:31;2.60;92.80
46356;DHT22;32066;49.474;11.106;2023-03-12T03:52:00;2.50;92.90
46356;DHT22;32066;49.474;11.106;2023-03-12T03:54:33;2.50;92.80
46356;DHT22;32066;49.474;11.106;2023-03-12T03:57:04;2.60;92.80
46356;DHT22;32066;49.474;11.106;2023-03-12T03:59:32;2.50;92.90
46356;DHT22;32066;49.474;11.106;2023-03-12T04:02:04;2.50;93.10
46356;DHT22;32066;49.474;11.106;2023-03-12T04:04:36;2.40;93.20
46356;DHT22;32066;49.474;11.106;2023-03-12T04:07:06;2.40;93.10
46356;DHT22;32066;49.474;11.106;2023-03-12T04:09:35;2.50;93.00
46356;DHT22;32066;49.474;11.106;2023-03-12T04:12:04;2.50;92.90
46356;DHT22;32066;49.474;11.106;2023-03-12T04:14:39;2.50;92.80
46356;DHT22;32066;49.474;11.106;2023-03-12T04:17:12;2.50;92.80
46356;DHT22;32066;49.474;11.106;2023-03-12T04:19:40;2.50;92.80
46356;DHT22;32066;49.474;11.106;2023-03-12T04:22:09;2.50;92.70
46356;DHT22;32066;49.474;11.106;2023-03-12T04:24:38;2.40;92.60
46356;DHT22;32066;49.474;11.106;2023-03-12T04:27:07;2.40;92.70
46356;DHT22;32066;49.474;11.106;2023-03-12T04:29:36;2.50;92.70
46356;DHT22;32066;49.474;11.106;2023-03-12T04:32:07;2.40;92.70
46356;DHT22;32066;49.474;11.106;2023-03-12T04:34:38;2.50;92.70
46356;DHT22;32066;49.474;11.106;2023-03-12T04:37:07;2.50;92.60
46356;DHT22;32066;49.474;11.106;2023-03-12T04:39:36;2.40;92.70
46356;DHT22;32066;49.474;11.106;2023-03-12T04:42:05;2.30;92.70
46356;DHT22;32066;49.474;11.106;2023-03-12T04:44:35;2.40;92.80
46356;DHT22;32066;49.474;11.106;2023-03-12T04:47:06;2.40;92.70
46356;DHT22;32066;49.474;11.106;2023-03-12T04:49:39;2.40;92.80
46356;DHT22;32066;49.474;11.106;2023-03-12T04:52:07;2.40;92.70
46356;DHT22;32066;49.474;11.106;2023-03-12T04:54:36;2.40;92.60
46356;DHT22;32066;49.474;11.106;2023-03-12T04:57:05;2.40;92.70
46356;DHT22;32066;49.474;11.106;2023-03-12T04:59:34;2.50;92.60
46356;DHT22;32066;49.474;11.106;2023-03-12T05:02:03;2.50;92.60
46356;DHT22;32066;49.474;11.106;2023-03-12T05:04:31;2.50;92.50
46356;DHT22;32066;49.474;11.106;2023-03-12T05:07:03;2.50;92.50
46356;DHT22;32066;49.474;11.106;2023-03-12T05:09:32;2.60;92.30
46356;DHT22;32066;49.474;11.106;2023-03-12T05:12:00;2.60;92.30
46356;DHT22;32066;49.474;11.106;2023-03-12T05:14:29;2.50;92.40
46356;DHT22;32066;49.474;11.106;2023-03-12T05:16:57;2.50;92.60
46356;DHT22;32066;49.474;11.106;2023-03-12T05:19:26;2.50;92.40
46356;DHT22;32066;49.474;11.106;2023-03-12T05:21:55;2.50;92.50
46356;DHT22;32066;49.474;11.106;2023-03-12T05:24:26;2.40;92.60
46356;DHT22;32066;49.474;11.106;2023-03-12T05:26:55;2.40;92.60
46356;DHT22;32066;49.474;11.106;2023-03-12T05:29:23;2.40;92.50
46356;DHT22;32066;49.474;11.106;2023-03-12T05:31:53;2.50;92.40
46356;DHT22;32066;49.474;11.106;2023-03-12T05:34:22;2.50;92.40
46356;DHT22;32066;49.474;11.106;2023-03-12T05:36:51;2.40;92.60
46356;DHT22;32066;49.474;11.106;2023-03-12T05:39:25;2.50;92.50
46356;DHT22;32066;49.474;11.106;2023-03-12T05:41:58;2.60;92.40
46356;DHT22;32066;49.474;11.106;2023-03-12T05:44:27;2.60;92.40
46356;DHT22;32066;49.474;11.106;2023-03-12T05:46:55;2.60;92.50
46356;DHT22;32066;49.474;11.106;2023-03-12T05:49:25;2.50;92.40
46356;DHT22;32066;49.474;11.106;2023-03-12T05:51:55;2.40;92.40
46356;DHT22;32066;49.474;11.106;2023-03-12T05:54:27;2.40;92.60
46356;DHT22;32066;49.474;11.106;2023-03-12T05:56:55;2.30;92.80
46356;DHT22;32066;49.474;11.106;2023-03-12T05:59:25;2.40;92.70
46356;DHT22;32066;49.474;11.106;2023-03-12T06:01:55;2.60;92.60
46356;DHT22;32066;49.474;11.106;2023-03-12T06:04:24;2.50;92.70
46356;DHT22;32066;49.474;11.106;2023-03-12T06:06:53;2.50;92.60
46356;DHT22;32066;49.474;11.106;2023-03-12T06:09:22;2.50;92.60
46356;DHT22;32066;49.474;11.106;2023-03-12T06:11:54;2.50;92.50
46356;DHT22;32066;49.474;11.106;2023-03-12T06:14:23;2.50;92.60
46356;DHT22;32066;49.474;11.106;2023-03-12T06:17:01;2.60;92.50
46356;DHT22;32066;49.474;11.106;2023-03-12T06:19:30;2.60;92.30
46356;DHT22;32066;49.474;11.106;2023-03-12T06:21:58;2.60;92.30
46356;DHT22;32066;49.474;11.106;2023-03-12T06:24:28;2.60;92.30
46356;DHT22;32066;49.474;11.106;2023-03-12T06:27:03;2.70;92.20
46356;DHT22;32066;49.474;11.106;2023-03-12T06:29:32;2.70;92.30
46356;DHT22;32066;49.474;11.106;2023-03-12T06:32:00;2.80;92.10
46356;DHT22;32066;49.474;11.106;2023-03-12T06:34:29;2.80;92.10
46356;DHT22;32066;49.474;11.106;2023-03-12T06:36:58;2.90;92.00
46356;DHT22;32066;49.474;11.106;2023-03-12T06:39:26;2.90;92.00
46356;DHT22;32066;49.474;11.106;2023-03-12T06:41:55;3.00;92.00
46356;DHT22;32066;49.474;11.106;2023-03-12T06:44:27;2.90;91.80
46356;DHT22;32066;49.474;11.106;2023-03-12T06:46:55;3.00;91.70
46356;DHT22;32066;49.474;11.106;2023-03-12T06:49:24;2.90;91.80
46356;DHT22;32066;49.474;11.106;2023-03-12T06:51:56;3.10;91.70
46356;DHT22;32066;49.474;11.106;2023-03-12T06:54:25;3.10;91.50
46356;DHT22;32066;49.474;11.106;2023-03-12T06:56:54;3.20;91.50
46356;DHT22;32066;49.474;11.106;2023-03-12T06:59:26;3.30;91.30
46356;DHT22;32066;49.474;11.106;2023-03-12T07:01:55;3.40;91.30
46356;DHT22;32066;49.474;11.106;2023-03-12T07:04:24;3.60;91.10
46356;DHT22;32066;49.474;11.106;2023-03-12T07:06:53;3.70;91.00
46356;DHT22;32066;49.474;11.106;2023-03-12T07:09:21;3.90;91.00
46356;DHT22;32066;49.474;11.106;2023-03-12T07:11:50;4.10;90.60
46356;DHT22;32066;49.474;11.106;2023-03-12T07:14:18;4.20;90.40
46356;DHT22;32066;49.474;11.106;2023-03-12T07:16:51;4.40;90.10
46356;DHT22;32066;49.474;11.106;2023-03-12T07:19:20;4.40;90.00
46356;DHT22;32066;49.474;11.106;2023-03-12T07:21:49;4.40;89.50
46356;DHT22;32066;49.474;11.106;2023-03-12T07:24:17;4.40;89.50
46356;DHT22;32066;49.474;11.106;2023-03-12T07:26:46;4.40;88.90
46356;DHT22;32066;49.474;11.106;2023-03-12T07:29:15;4.40;89.00
46356;DHT22;32066;49.474;11.106;2023-03-12T07:31:43;4.50;89.00
46356;DHT22;32066;49.474;11.106;2023-03-12T07:34:14;4.50;89.00
46356;DHT22;32066;49.474;11.106;2023-03-12T07:36:43;4.60;88.80
46356;DHT22;32066;49.474;11.106;2023-03-12T07:39:11;4.70;88.80
46356;DHT22;32066;49.474;11.106;2023-03-12T07:41:40;4.70;88.40
46356;DHT22;32066;49.474;11.106;2023-03-12T07:44:09;4.80;88.40
46356;DHT22;32066;49.474;11.106;2023-03-12T07:46:38;4.80;88.40
46356;DHT22;32066;49.474;11.106;2023-03-12T07:49:06;4.90;88.30
46356;DHT22;32066;49.474;11.106;2023-03-12T07:51:38;4.90;87.60
46356;DHT22;32066;49.474;11.106;2023-03-12T07:54:06;5.00;87.50
46356;DHT22;32066;49.474;11.106;2023-03-12T07:56:35;5.00;87.20
46356;DHT22;32066;49.474;11.106;2023-03-12T07:59:04;5.10;87.30
46356;DHT22;32066;49.474;11.106;2023-03-12T08:01:32;5.00;86.50
46356;DHT22;32066;49.474;11.106;2023-03-12T08:04:01;5.00;86.80
46356;DHT22;32066;49.474;11.106;2023-03-12T08:06:30;5.10;86.50
46356;DHT22;32066;49.474;11.106;2023-03-12T08:09:01;5.20;86.40
46356;DHT22;32066;49.474;11.106;2023-03-12T08:11:30;5.30;86.30
46356;DHT22;32066;49.474;11.106;2023-03-12T08:13:59;5.40;86.20
46356;DHT22;32066;49.474;11.106;2023-03-12T08:16:28;5.50;85.90
46356;DHT22;32066;49.474;11.106;2023-03-12T08:18:56;5.50;85.50
46356;DHT22;32066;49.474;11.106;2023-03-12T08:21:25;5.60;85.20
46356;DHT22;32066;49.474;11.106;2023-03-12T08:23:54;5.60;85.10
46356;DHT22;32066;49.474;11.106;2023-03-12T08:26:25;5.60;84.50
46356;DHT22;32066;49.474;11.106;2023-03-12T08:28:54;5.60;83.80
46356;DHT22;32066;49.474;11.106;2023-03-12T08:31:25;5.70;83.80
46356;DHT22;32066;49.474;11.106;2023-03-12T08:33:53;5.70;83.70
46356;DHT22;32066;49.474;11.106;2023-03-12T08:36:22;5.70;83.50
46356;DHT22;32066;49.474;11.106;2023-03-12T08:38:50;5.70;82.60
46356;DHT22;32066;49.474;11.106;2023-03-12T08:41:19;5.80;83.10
46356;DHT22;32066;49.474;11.106;2023-03-12T08:43:50;5.70;83.40
46356;DHT22;32066;49.474;11.106;2023-03-12T08:46:19;5.80;83.00
46356;DHT22;32066;49.474;11.106;2023-03-12T08:48:47;5.80;83.10
46356;DHT22;32066;49.474;11.106;2023-03-12T08:51:16;5.90;83.20
46356;DHT22;32066;49.474;11.106;2023-03-12T08:53:44;5.90;83.20
46356;DHT22;32066;49.474;11.106;2023-03-12T08:56:13;6.00;82.80
46356;DHT22;32066;49.474;11.106;2023-03-12T08:58:42;5.90;82.90
46356;DHT22;32066;49.474;11.106;2023-03-12T09:01:13;5.90;82.60
46356;DHT22;32066;49.474;11.106;2023-03-12T09:03:42;5.90;82.60
46356;DHT22;32066;49.474;11.106;2023-03-12T09:06:12;6.00;82.80
46356;DHT22;32066;49.474;11.106;2023-03-12T09:08:42;6.00;83.00
46356;DHT22;32066;49.474;11.106;2023-03-12T09:11:12;5.90;82.90
46356;DHT22;32066;49.474;11.106;2023-03-12T09:13:41;5.80;83.40
46356;DHT22;32066;49.474;11.106;2023-03-12T09:16:12;5.70;83.30
46356;DHT22;32066;49.474;11.106;2023-03-12T09:18:41;5.80;83.50
46356;DHT22;32066;49.474;11.106;2023-03-12T09:21:10;5.80;83.60
46356;DHT22;32066;49.474;11.106;2023-03-12T09:23:38;5.80;83.40
46356;DHT22;32066;49.474;11.106;2023-03-12T09:26:08;5.90;83.90
46356;DHT22;32066;49.474;11.106;2023-03-12T09:28:37;6.10;83.60
46356;DHT22;32066;49.474;11.106;2023-03-12T09:31:07;6.30;83.60
46356;DHT22;32066;49.474;11.106;2023-03-12T09:33:38;6.40;83.20
46356;DHT22;32066;49.474;11.106;2023-03-12T09:36:07;6.60;83.20
46356;DHT22;32066;49.474;11.106;2023-03-12T09:41:11;6.70;81.90
46356;DHT22;32066;49.474;11.106;2023-03-12T09:43:46;6.80;82.80
46356;DHT22;32066;49.474;11.106;2023-03-12T09:46:21;6.90;82.40
46356;DHT22;32066;49.474;11.106;2023-03-12T09:48:56;7.00;81.90
46356;DHT22;32066;49.474;11.106;2023-03-12T09:51:30;7.00;82.00
46356;DHT22;32066;49.474;11.106;2023-03-12T09:54:02;7.10;82.30
46356;DHT22;32066;49.474;11.106;2023-03-12T09:56:33;7.00;81.70
46356;DHT22;32066;49.474;11.106;2023-03-12T09:59:02;6.80;82.30
46356;DHT22;32066;49.474;11.106;2023-03-12T10:01:46;6.70;82.40
46356;DHT22;32066;49.474;11.106;2023-03-12T10:04:32;6.70;83.00
46356;DHT22;32066;49.474;11.106;2023-03-12T10:07:08;6.50;83.50
46356;DHT22;32066;49.474;11.106;2023-03-12T10:13:06;6.60;84.10
46356;DHT22;32066;49.474;11.106;2023-03-12T10:15:45;6.50;84.70
46356;DHT22;32066;49.474;11.106;2023-03-12T10:18:21;6.70;84.20
46356;DHT22;32066;49.474;11.106;2023-03-12T10:21:06;6.50;84.30
46356;DHT22;32066;49.474;11.106;2023-03-12T10:23:47;6.50;84.50
46356;DHT22;32066;49.474;11.106;2023-03-12T10:26:22;6.50;85.00
46356;DHT22;32066;49.474;11.106;2023-03-12T10:28:56;6.50;85.10
46356;DHT22;32066;49.474;11.106;2023-03-12T10:31:28;6.60;85.80
46356;DHT22;32066;49.474;11.106;2023-03-12T10:33:59;6.70;86.30
46356;DHT22;32066;49.474;11.106;2023-03-12T10:36:36;6.80;86.30
46356;DHT22;32066;49.474;11.106;2023-03-12T10:39:11;6.80;88.40
46356;DHT22;32066;49.474;11.106;2023-03-12T10:41:41;6.60;89.70
46356;DHT22;32066;49.474;11.106;2023-03-12T10:44:17;6.60;90.00
46356;DHT22;32066;49.474;11.106;2023-03-12T10:47:03;6.70;90.20
46356;DHT22;32066;49.474;11.106;2023-03-12T10:49:35;6.70;90.30
46356;DHT22;32066;49.474;11.106;2023-03-12T10:52:14;6.70;90.50
46356;DHT22;32066;49.474;11.106;2023-03-12T10:54:45;6.70;90.50
46356;DHT22;32066;49.474;11.106;2023-03-12T10:57:15;6.60;90.70
46356;DHT22;32066;49.474;11.106;2023-03-12T10:59:45;6.70;90.80
46356;DHT22;32066;49.474;11.106;2023-03-12T11:02:30;6.60;91.30
46356;DHT22;32066;49.474;11.106;2023-03-12T11:05:00;6.60;91.60
46356;DHT22;32066;49.474;11.106;2023-03-12T11:07:33;6.50;92.20
46356;DHT22;32066;49.474;11.106;2023-03-12T11:10:20;6.50;92.30
46356;DHT22;32066;49.474;11.106;2023-03-12T11:13:01;6.60;92.30
46356;DHT22;32066;49.474;11.106;2023-03-12T11:15:38;6.70;92.20
46356;DHT22;32066;49.474;11.106;2023-03-12T11:18:28;6.80;92.10
46356;DHT22;32066;49.474;11.106;2023-03-12T11:21:11;6.80;92.20
46356;DHT22;32066;49.474;11.106;2023-03-12T11:23:45;6.80;92.50
46356;DHT22;32066;49.474;11.106;2023-03-12T11:26:17;6.70;92.60
46356;DHT22;32066;49.474;11.106;2023-03-12T11:28:49;6.80;92.60
46356;DHT22;32066;49.474;11.106;2023-03-12T11:31:24;6.70;92.80
46356;DHT22;32066;49.474;11.106;2023-03-12T11:33:56;6.70;92.90
46356;DHT22;32066;49.474;11.106;2023-03-12T11:36:36;6.60;93.10
46356;DHT22;32066;49.474;11.106;2023-03-12T11:39:17;6.60;93.40
46356;DHT22;32066;49.474;11.106;2023-03-12T11:42:07;6.60;93.60
46356;DHT22;32066;49.474;11.106;2023-03-12T11:44:42;6.60;94.00
46356;DHT22;32066;49.474;11.106;2023-03-12T11:47:28;6.60;94.00
46356;DHT22;32066;49.474;11.106;2023-03-12T11:50:12;6.70;94.00
46356;DHT22;32066;49.474;11.106;2023-03-12T11:52:51;6.60;94.30
46356;DHT22;32066;49.474;11.106;2023-03-12T11:55:46;6.60;94.50
46356;DHT22;32066;49.474;11.106;2023-03-12T11:58:29;6.60;95.00
46356;DHT22;32066;49.474;11.106;2023-03-12T12:01:07;6.50;95.40
46356;DHT22;32066;49.474;11.106;2023-03-12T12:03:55;6.50;95.70
46356;DHT22;32066;49.474;11.106;2023-03-12T12:06:35;6.50;96.20
46356;DHT22;32066;49.474;11.106;2023-03-12T12:09:13;6.50;96.30
46356;DHT22;32066;49.474;11.106;2023-03-12T12:11:58;6.50;96.30
46356;DHT22;32066;49.474;11.106;2023-03-12T12:14:50;6.50;96.60
46356;DHT22;32066;49.474;11.106;2023-03-12T12:17:28;6.60;96.60
46356;DHT22;32066;49.474;11.106;2023-03-12T12:20:10;6.60;96.60
46356;DHT22;32066;49.474;11.106;2023-03-12T12:22:53;6.70;96.60
46356;DHT22;32066;49.474;11.106;2023-03-12T12:25:33;6.70;96.80
46356;DHT22;32066;49.474;11.106;2023-03-12T12:28:26;6.70;96.90
46356;DHT22;32066;49.474;11.106;2023-03-12T12:31:07;6.60;97.20
46356;DHT22;32066;49.474;11.106;2023-03-12T12:33:54;6.60;97.60
46356;DHT22;32066;49.474;11.106;2023-03-12T12:36:23;6.70;97.50
46356;DHT22;32066;49.474;11.106;2023-03-12T12:38:55;6.80;97.60
46356;DHT22;32066;49.474;11.106;2023-03-12T12:41:28;6.90;97.50
46356;DHT22;32066;49.474;11.106;2023-03-12T12:44:04;6.80;97.90
46356;DHT22;32066;49.474;11.106;2023-03-12T12:46:35;6.80;98.00
46356;DHT22;32066;49.474;11.106;2023-03-12T12:49:10;6.90;98.00
46356;DHT22;32066;49.474;11.106;2023-03-12T12:51:42;6.90;97.90
46356;DHT22;32066;49.474;11.106;2023-03-12T12:54:18;6.90;98.10
46356;DHT22;32066;49.474;11.106;2023-03-12T12:56:53;7.00;98.40
46356;DHT22;32066;49.474;11.106;2023-03-12T12:59:44;7.00;98.40
46356;DHT22;32066;49.474;11.106;2023-03-12T13:02:19;6.90;98.90
46356;DHT22;32066;49.474;11.106;2023-03-12T13:04:48;7.00;99.00
46356;DHT22;32066;49.474;11.106;2023-03-12T13:07:31;7.00;99.40
46356;DHT22;32066;49.474;11.106;2023-03-12T13:10:06;6.90;99.70
46356;DHT22;32066;49.474;11.106;2023-03-12T13:12:41;6.80;99.90
46356;DHT22;32066;49.474;11.106;2023-03-12T13:15:34;6.80;99.90
46356;DHT22;32066;49.474;11.106;2023-03-12T13:18:08;6.80;99.90
46356;DHT22;32066;49.474;11.106;2023-03-12T13:20:43;6.80;99.90
46356;DHT22;32066;49.474;11.106;2023-03-12T13:23:20;6.80;99.90
46356;DHT22;32066;49.474;11.106;2023-03-12T13:25:57;6.90;99.90
46356;DHT22;32066;49.474;11.106;2023-03-12T13:28:32;6.80;99.90
46356;DHT22;32066;49.474;11.106;2023-03-12T13:31:36;6.90;99.90
46356;DHT22;32066;49.474;11.106;2023-03-12T13:43:47;6.90;99.90
46356;DHT22;32066;49.474;11.106;2023-03-12T13:46:37;6.90;99.90
46356;DHT22;32066;49.474;11.106;2023-03-12T13:49:15;7.00;99.90
46356;DHT22;32066;49.474;11.106;2023-03-12T13:55:05;7.00;99.90
46356;DHT22;32066;49.474;11.106;2023-03-12T13:57:38;7.00;99.90
46356;DHT22;32066;49.474;11.106;2023-03-12T14:00:16;6.90;99.90
46356;DHT22;32066;49.474;11.106;2023-03-12T14:02:52;6.80;99.90
46356;DHT22;32066;49.474;11.106;2023-03-12T14:05:22;6.90;99.90
46356;DHT22;32066;49.474;11.106;2023-03-12T14:08:02;6.90;99.90
46356;DHT22;32066;49.474;11.106;2023-03-12T14:10:42;7.00;99.90
46356;DHT22;32066;49.474;11.106;2023-03-12T14:13:28;6.90;99.90
46356;DHT22;32066;49.474;11.106;2023-03-12T14:16:04;7.10;99.90
46356;DHT22;32066;49.474;11.106;2023-03-12T14:18:42;7.10;99.90
46356;DHT22;32066;49.474;11.106;2023-03-12T14:21:15;7.10;99.90
46356;DHT22;32066;49.474;11.106;2023-03-12T14:23:48;7.10;99.90
46356;DHT22;32066;49.474;11.106;2023-03-12T14:26:20;7.20;99.90
46356;DHT22;32066;49.474;11.106;2023-03-12T14:28:58;7.20;99.90
46356;DHT22;32066;49.474;11.106;2023-03-12T14:31:29;7.20;99.90
46356;DHT22;32066;49.474;11.106;2023-03-12T14:34:04;7.10;99.90
46356;DHT22;32066;49.474;11.106;2023-03-12T14:36:38;7.20;99.90
46356;DHT22;32066;49.474;11.106;2023-03-12T14:39:17;7.30;99.90
46356;DHT22;32066;49.474;11.106;2023-03-12T14:41:53;7.40;99.90
46356;DHT22;32066;49.474;11.106;2023-03-12T14:44:24;7.50;99.90
46356;DHT22;32066;49.474;11.106;2023-03-12T14:46:57;7.50;99.90
46356;DHT22;32066;49.474;11.106;2023-03-12T14:49:30;7.50;99.90
46356;DHT22;32066;49.474;11.106;2023-03-12T14:51:58;7.60;99.90
46356;DHT22;32066;49.474;11.106;2023-03-12T14:54:27;7.60;99.90
46356;DHT22;32066;49.474;11.106;2023-03-12T14:56:56;7.60;99.90
46356;DHT22;32066;49.474;11.106;2023-03-12T14:59:27;7.70;99.90
46356;DHT22;32066;49.474;11.106;2023-03-12T15:01:59;7.70;99.90
46356;DHT22;32066;49.474;11.106;2023-03-12T15:04:32;7.90;99.90
46356;DHT22;32066;49.474;11.106;2023-03-12T15:07:03;7.90;99.90
46356;DHT22;32066;49.474;11.106;2023-03-12T15:09:34;8.00;99.90
46356;DHT22;32066;49.474;11.106;2023-03-12T15:12:05;8.00;99.90
46356;DHT22;32066;49.474;11.106;2023-03-12T15:14:38;8.10;99.90
46356;DHT22;32066;49.474;11.106;2023-03-12T15:17:14;8.10;99.90
46356;DHT22;32066;49.474;11.106;2023-03-12T15:19:47;8.10;99.90
46356;DHT22;32066;49.474;11.106;2023-03-12T15:22:18;8.10;99.90
46356;DHT22;32066;49.474;11.106;2023-03-12T15:24:47;8.10;99.90
46356;DHT22;32066;49.474;11.106;2023-03-12T15:27:21;8.10;99.90
46356;DHT22;32066;49.474;11.106;2023-03-12T15:29:53;8.10;99.90
46356;DHT22;32066;49.474;11.106;2023-03-12T15:32:23;8.20;99.90
46356;DHT22;32066;49.474;11.106;2023-03-12T15:34:57;8.20;99.90
46356;DHT22;32066;49.474;11.106;2023-03-12T15:37:28;8.30;99.90
46356;DHT22;32066;49.474;11.106;2023-03-12T15:40:05;8.30;99.90
46356;DHT22;32066;49.474;11.106;2023-03-12T15:42:37;8.40;99.90
46356;DHT22;32066;49.474;11.106;2023-03-12T15:45:16;8.30;99.90
46356;DHT22;32066;49.474;11.106;2023-03-12T15:47:46;8.30;99.90
46356;DHT22;32066;49.474;11.106;2023-03-12T15:50:22;8.30;99.90
46356;DHT22;32066;49.474;11.106;2023-03-12T15:52:59;8.30;99.90
46356;DHT22;32066;49.474;11.106;2023-03-12T15:55:30;8.40;99.90
46356;DHT22;32066;49.474;11.106;2023-03-12T15:57:59;8.50;99.90
46356;DHT22;32066;49.474;11.106;2023-03-12T16:00:29;8.50;99.90
46356;DHT22;32066;49.474;11.106;2023-03-12T16:02:59;8.50;99.90
46356;DHT22;32066;49.474;11.106;2023-03-12T16:05:33;8.60;99.90
46356;DHT22;32066;49.474;11.106;2023-03-12T16:08:13;8.70;99.90
46356;DHT22;32066;49.474;11.106;2023-03-12T16:10:43;8.70;99.90
46356;DHT22;32066;49.474;11.106;2023-03-12T16:13:14;8.80;99.90
46356;DHT22;32066;49.474;11.106;2023-03-12T16:15:44;8.70;99.90
46356;DHT22;32066;49.474;11.106;2023-03-12T16:18:14;8.80;99.90
46356;DHT22;32066;49.474;11.106;2023-03-12T16:20:46;8.80;99.90